createdAt,value
2023-12-30T00:00:41.242Z,1000.11
2023-12-30T00:01:41.325Z,1000.09
2023-12-30T00:02:41.258Z,1000.08
2023-12-30T00:03:41.288Z,1000.10
2023-12-30T00:04:41.312Z,1000.09
2023-12-30T00:05:41.338Z,1000.16
2023-12-30T00:06:41.320Z,1000.13
2023-12-30T00:07:41.324Z,1000.10
2023-12-30T00:08:41.326Z,1000.07
2023-12-30T00:09:41.349Z,1000.09
2023-12-30T00:10:41.349Z,1000.08
2023-12-30T00:11:41.372Z,1000.07
2023-12-30T00:12:41.478Z,1000.08
2023-12-30T00:13:41.394Z,1000.12
2023-12-30T00:14:41.398Z,1000.03
2023-12-30T00:15:41.414Z,1000.10
2023-12-30T00:16:41.432Z,1000.10
2023-12-30T00:17:41.489Z,1000.04
2023-12-30T00:18:41.523Z,1000.02
2023-12-30T00:19:41.477Z,1000.04
2023-12-30T00:20:41.479Z,999.94
2023-12-30T00:21:41.486Z,1000.01
2023-12-30T00:22:41.499Z,999.92
2023-12-30T00:23:45.881Z,999.98
2023-12-30T00:24:41.525Z,999.93
2023-12-30T00:25:41.539Z,999.91
2023-12-30T00:26:41.552Z,999.83
2023-12-30T00:27:41.564Z,999.78
2023-12-30T00:28:41.576Z,999.58
2023-12-30T00:29:41.607Z,999.55
2023-12-30T00:30:41.616Z,999.58
2023-12-30T00:31:41.670Z,999.57
2023-12-30T00:32:41.685Z,999.59
2023-12-30T00:33:41.695Z,999.53
2023-12-30T00:34:41.670Z,999.38
2023-12-30T00:35:41.667Z,999.23
2023-12-30T00:36:41.679Z,999.38
2023-12-30T00:37:41.699Z,999.63
2023-12-30T00:38:41.702Z,999.74
2023-12-30T00:39:41.728Z,999.81
2023-12-30T00:40:41.769Z,999.82
2023-12-30T00:41:41.742Z,999.89
2023-12-30T00:42:41.752Z,999.97
2023-12-30T00:43:41.769Z,1000.00
2023-12-30T00:44:41.784Z,1000.03
2023-12-30T00:45:41.797Z,1000.03
2023-12-30T00:46:42.870Z,1000.12
2023-12-30T00:47:41.884Z,1000.11
2023-12-30T00:48:41.843Z,1000.11
2023-12-30T00:49:41.936Z,1000.04
2023-12-30T00:50:41.861Z,1000.09
2023-12-30T00:51:41.868Z,1000.08
2023-12-30T00:52:41.879Z,1000.09
2023-12-30T00:53:41.895Z,1000.17
2023-12-30T00:54:48.181Z,1000.08
2023-12-30T00:55:42.026Z,1000.07
2023-12-30T00:56:41.939Z,1000.06
2023-12-30T00:57:41.950Z,1000.08
2023-12-30T00:58:41.963Z,1000.15
2023-12-30T00:59:41.973Z,1000.17
2023-12-30T01:00:42.015Z,1000.14
2023-12-30T01:01:42.103Z,1000.16
2023-12-30T01:02:42.043Z,1000.16
2023-12-30T01:03:42.263Z,1000.14
2023-12-30T01:04:42.107Z,1000.17
2023-12-30T01:05:42.048Z,1000.24
2023-12-30T01:06:42.062Z,1000.22
2023-12-30T01:07:42.070Z,1000.24
2023-12-30T01:08:42.111Z,1000.19
2023-12-30T01:09:42.097Z,1000.24
2023-12-30T01:10:42.114Z,1000.18
2023-12-30T01:11:42.122Z,1000.27
2023-12-30T01:12:42.136Z,1000.17
2023-12-30T01:13:42.265Z,1000.15
2023-12-30T01:14:42.159Z,1000.27
2023-12-30T01:15:42.183Z,1000.25
2023-12-30T01:16:42.200Z,1000.32
2023-12-30T01:17:42.306Z,1000.32
2023-12-30T01:18:42.325Z,1000.35
2023-12-30T01:19:42.272Z,1000.40
2023-12-30T01:20:42.236Z,1000.39
2023-12-30T01:21:42.251Z,1000.37
2023-12-30T01:22:42.268Z,1000.40
2023-12-30T01:23:42.288Z,1000.41
2023-12-30T01:24:42.298Z,1000.42
2023-12-30T01:25:42.300Z,1000.46
2023-12-30T01:26:42.328Z,1000.49
2023-12-30T01:27:42.329Z,1000.48
2023-12-30T01:28:42.338Z,1000.52
2023-12-30T01:29:42.351Z,1000.55
2023-12-30T01:30:42.509Z,1000.53
2023-12-30T01:31:42.557Z,1000.62
2023-12-30T01:32:42.527Z,1000.54
2023-12-30T01:33:42.471Z,1000.55
2023-12-30T01:34:42.449Z,1000.61
2023-12-30T01:35:42.425Z,1000.65
2023-12-30T01:36:42.448Z,1000.63
2023-12-30T01:37:42.455Z,1000.66
2023-12-30T01:38:42.463Z,1000.66
2023-12-30T01:39:42.478Z,1000.70
2023-12-30T01:40:42.501Z,1000.76
2023-12-30T01:41:42.506Z,1000.74
2023-12-30T01:42:42.538Z,1000.79
2023-12-30T01:43:42.629Z,1000.80
2023-12-30T01:44:42.546Z,1000.78
2023-12-30T01:45:42.556Z,1000.75
2023-12-30T01:46:42.572Z,1000.68
2023-12-30T01:47:42.692Z,1000.71
2023-12-30T01:48:42.697Z,1000.67
2023-12-30T01:49:42.719Z,1000.62
2023-12-30T01:50:42.630Z,1000.67
2023-12-30T01:51:42.639Z,1000.61
2023-12-30T01:52:42.649Z,1000.74
2023-12-30T01:53:42.756Z,1000.74
2023-12-30T01:54:42.677Z,1000.72
2023-12-30T01:55:42.705Z,1000.72
2023-12-30T01:56:42.699Z,1000.76
2023-12-30T01:57:42.712Z,1000.75
2023-12-30T01:58:42.739Z,1000.75
2023-12-30T01:59:42.795Z,1000.77
2023-12-30T02:00:42.752Z,1000.73
2023-12-30T02:01:42.835Z,1000.74
2023-12-30T02:02:42.779Z,1000.79
2023-12-30T02:03:42.894Z,1000.75
2023-12-30T02:04:42.831Z,1000.76
2023-12-30T02:05:42.826Z,1000.77
2023-12-30T02:06:42.913Z,1000.78
2023-12-30T02:07:42.853Z,1000.79
2023-12-30T02:08:42.859Z,1000.80
2023-12-30T02:09:42.882Z,1000.81
2023-12-30T02:10:42.886Z,1000.81
2023-12-30T02:11:42.900Z,1000.80
2023-12-30T02:12:42.912Z,1000.83
2023-12-30T02:13:43.009Z,1000.84
2023-12-30T02:14:42.941Z,1000.90
2023-12-30T02:15:42.960Z,1000.83
2023-12-30T02:16:42.959Z,1000.87
2023-12-30T02:17:43.119Z,1000.87
2023-12-30T02:18:43.099Z,1000.80
2023-12-30T02:19:43.014Z,1000.76
2023-12-30T02:20:43.006Z,1000.71
2023-12-30T02:21:43.020Z,1000.69
2023-12-30T02:22:43.032Z,1000.67
2023-12-30T02:23:43.052Z,1000.79
2023-12-30T02:24:43.056Z,1000.78
2023-12-30T02:25:43.074Z,1000.78
2023-12-30T02:26:43.088Z,1000.79
2023-12-30T02:27:43.100Z,1000.78
2023-12-30T02:28:43.117Z,1000.76
2023-12-30T02:29:43.127Z,1000.75
2023-12-30T02:30:43.172Z,1000.76
2023-12-30T02:31:43.190Z,1000.77
2023-12-30T02:32:43.236Z,1000.85
2023-12-30T02:33:43.216Z,1000.86
2023-12-30T02:34:43.246Z,1000.88
2023-12-30T02:35:43.215Z,1000.87
2023-12-30T02:36:43.214Z,1000.93
2023-12-30T02:37:43.227Z,1000.87
2023-12-30T02:38:43.246Z,1000.96
2023-12-30T02:39:43.262Z,1000.96
2023-12-30T02:40:43.280Z,1000.99
2023-12-30T02:41:43.308Z,1001.01
2023-12-30T02:42:43.292Z,1000.93
2023-12-30T02:43:43.390Z,1000.93
2023-12-30T02:44:43.358Z,1000.95
2023-12-30T02:45:43.339Z,1000.98
2023-12-30T02:46:43.341Z,1000.97
2023-12-30T02:47:43.395Z,1000.97
2023-12-30T02:48:43.412Z,1000.91
2023-12-30T02:49:43.497Z,1000.91
2023-12-30T02:50:43.440Z,1000.86
2023-12-30T02:51:43.405Z,1000.91
2023-12-30T02:52:43.420Z,1000.93
2023-12-30T02:53:43.426Z,1000.92
2023-12-30T02:54:43.448Z,1000.91
2023-12-30T02:55:43.449Z,1000.86
2023-12-30T02:56:43.462Z,1000.87
2023-12-30T02:57:48.960Z,1000.88
2023-12-30T02:58:43.495Z,1000.89
2023-12-30T02:59:43.505Z,1000.95
2023-12-30T03:00:43.584Z,1000.93
2023-12-30T03:01:43.685Z,1000.95
2023-12-30T03:02:43.542Z,1000.97
2023-12-30T03:03:43.579Z,1000.99
2023-12-30T03:04:43.665Z,1000.96
2023-12-30T03:05:43.608Z,1000.99
2023-12-30T03:06:43.593Z,1000.98
2023-12-30T03:07:43.623Z,1001.01
2023-12-30T03:08:43.616Z,1001.02
2023-12-30T03:09:43.654Z,1001.05
2023-12-30T03:10:43.695Z,1001.07
2023-12-30T03:11:43.658Z,1001.05
2023-12-30T03:12:43.694Z,1001.00
2023-12-30T03:13:43.709Z,1001.12
2023-12-30T03:14:43.698Z,1001.14
2023-12-30T03:15:43.710Z,1001.10
2023-12-30T03:16:43.724Z,1001.11
2023-12-30T03:17:43.809Z,1001.20
2023-12-30T03:18:43.881Z,1001.14
2023-12-30T03:19:43.850Z,1001.16
2023-12-30T03:20:43.768Z,1001.14
2023-12-30T03:21:43.784Z,1001.19
2023-12-30T03:22:43.801Z,1001.18
2023-12-30T03:23:43.821Z,1001.13
2023-12-30T03:24:43.820Z,1001.07
2023-12-30T03:25:43.840Z,1001.11
2023-12-30T03:26:43.844Z,1001.13
2023-12-30T03:27:43.865Z,1001.10
2023-12-30T03:28:43.873Z,1001.03
2023-12-30T03:29:43.897Z,1000.98
2023-12-30T03:30:43.958Z,1001.02
2023-12-30T03:31:43.948Z,1000.98
2023-12-30T03:32:43.999Z,1001.00
2023-12-30T03:33:43.944Z,1000.85
2023-12-30T03:34:44.003Z,1000.69
2023-12-30T03:35:43.959Z,1000.53
2023-12-30T03:36:43.977Z,1000.38
2023-12-30T03:37:43.984Z,1000.31
2023-12-30T03:38:43.994Z,1000.50
2023-12-30T03:39:44.018Z,1000.62
2023-12-30T03:40:44.037Z,1000.66
2023-12-30T03:41:44.036Z,1000.71
2023-12-30T03:42:44.047Z,1000.70
2023-12-30T03:43:44.060Z,1000.67
2023-12-30T03:44:44.069Z,1000.69
2023-12-30T03:45:44.085Z,1000.78
2023-12-30T03:46:44.169Z,1000.81
2023-12-30T03:47:44.119Z,1000.81
2023-12-30T03:48:44.183Z,1000.84
2023-12-30T03:49:44.205Z,1000.82
2023-12-30T03:50:44.146Z,1000.88
2023-12-30T03:51:44.287Z,1000.85
2023-12-30T03:52:44.172Z,1000.91
2023-12-30T03:53:44.184Z,1000.91
2023-12-30T03:54:44.226Z,1000.95
2023-12-30T03:55:44.286Z,1000.97
2023-12-30T03:56:44.219Z,1000.95
2023-12-30T03:57:44.230Z,1000.97
2023-12-30T03:58:44.244Z,1000.98
2023-12-30T03:59:44.254Z,1000.95
2023-12-30T04:00:44.302Z,1000.91
2023-12-30T04:01:44.356Z,1000.95
2023-12-30T04:02:44.344Z,1000.99
2023-12-30T04:03:44.308Z,1001.08
2023-12-30T04:04:44.349Z,1001.06
2023-12-30T04:05:44.388Z,1001.04
2023-12-30T04:06:44.339Z,1001.04
2023-12-30T04:07:44.361Z,1001.08
2023-12-30T04:08:44.369Z,1001.08
2023-12-30T04:09:44.378Z,1001.13
2023-12-30T04:10:44.394Z,1001.15
2023-12-30T04:11:44.453Z,1001.17
2023-12-30T04:12:44.415Z,1001.22
2023-12-30T04:13:44.486Z,1001.16
2023-12-30T04:14:44.438Z,1001.14
2023-12-30T04:15:44.459Z,1001.14
2023-12-30T04:16:44.469Z,1001.10
2023-12-30T04:17:44.559Z,1001.12
2023-12-30T04:18:44.527Z,1001.16
2023-12-30T04:19:44.513Z,1001.19
2023-12-30T04:20:44.599Z,1001.14
2023-12-30T04:21:44.524Z,1001.17
2023-12-30T04:22:44.536Z,1001.23
2023-12-30T04:23:44.555Z,1001.26
2023-12-30T04:24:44.564Z,1001.23
2023-12-30T04:25:44.628Z,1001.23
2023-12-30T04:26:44.589Z,1001.32
2023-12-30T04:27:44.622Z,1001.30
2023-12-30T04:28:44.612Z,1001.32
2023-12-30T04:29:44.694Z,1001.32
2023-12-30T04:30:44.682Z,1001.37
2023-12-30T04:31:44.671Z,1001.34
2023-12-30T04:32:44.697Z,1001.34
2023-12-30T04:33:44.741Z,1001.35
2023-12-30T04:34:44.709Z,1001.36
2023-12-30T04:35:44.713Z,1001.44
2023-12-30T04:36:44.721Z,1001.37
2023-12-30T04:37:44.724Z,1001.35
2023-12-30T04:38:45.080Z,1001.46
2023-12-30T04:39:44.742Z,1001.41
2023-12-30T04:40:44.760Z,1001.47
2023-12-30T04:41:44.770Z,1001.49
2023-12-30T04:42:44.803Z,1001.53
2023-12-30T04:43:44.844Z,1001.49
2023-12-30T04:44:44.806Z,1001.50
2023-12-30T04:45:44.821Z,1001.47
2023-12-30T04:46:44.832Z,1001.49
2023-12-30T04:47:44.881Z,1001.47
2023-12-30T04:48:44.878Z,1001.57
2023-12-30T04:49:44.890Z,1001.60
2023-12-30T04:50:44.875Z,1001.61
2023-12-30T04:51:44.896Z,1001.62
2023-12-30T04:52:44.905Z,1001.66
2023-12-30T04:53:44.916Z,1001.65
2023-12-30T04:54:44.924Z,1001.71
2023-12-30T04:55:44.938Z,1001.65
2023-12-30T04:56:44.950Z,1001.67
2023-12-30T04:57:44.961Z,1001.56
2023-12-30T04:58:44.972Z,1001.53
2023-12-30T04:59:45.004Z,1001.54
2023-12-30T05:00:45.030Z,1001.61
2023-12-30T05:01:45.047Z,1001.62
2023-12-30T05:02:45.038Z,1001.70
2023-12-30T05:03:45.031Z,1001.71
2023-12-30T05:04:45.043Z,1001.73
2023-12-30T05:05:45.208Z,1001.71
2023-12-30T05:06:45.063Z,1001.82
2023-12-30T05:07:45.119Z,1001.83
2023-12-30T05:08:45.103Z,1001.87
2023-12-30T05:09:45.124Z,1001.86
2023-12-30T05:10:45.110Z,1001.98
2023-12-30T05:11:45.126Z,1001.98
2023-12-30T05:12:45.177Z,1001.97
2023-12-30T05:13:45.185Z,1002.03
2023-12-30T05:14:45.171Z,1001.92
2023-12-30T05:15:45.171Z,1001.99
2023-12-30T05:16:45.188Z,1001.94
2023-12-30T05:17:45.324Z,1002.03
2023-12-30T05:18:45.293Z,1002.05
2023-12-30T05:19:45.259Z,1002.02
2023-12-30T05:20:45.232Z,1002.02
2023-12-30T05:21:45.250Z,1002.04
2023-12-30T05:22:45.301Z,1002.06
2023-12-30T05:23:45.264Z,1002.13
2023-12-30T05:24:45.276Z,1002.17
2023-12-30T05:25:45.296Z,1002.16
2023-12-30T05:26:45.297Z,1002.13
2023-12-30T05:27:45.309Z,1002.14
2023-12-30T05:28:45.321Z,1002.14
2023-12-30T05:29:45.342Z,1002.15
2023-12-30T05:30:45.373Z,1002.24
2023-12-30T05:31:45.427Z,1002.23
2023-12-30T05:32:45.398Z,1002.26
2023-12-30T05:33:45.406Z,1002.31
2023-12-30T05:34:45.433Z,1002.28
2023-12-30T05:35:45.405Z,1002.26
2023-12-30T05:36:45.420Z,1002.24
2023-12-30T05:37:45.459Z,1002.29
2023-12-30T05:38:45.449Z,1002.37
2023-12-30T05:39:45.448Z,1002.29
2023-12-30T05:40:45.492Z,1002.28
2023-12-30T05:41:45.497Z,1002.37
2023-12-30T05:42:45.485Z,1002.29
2023-12-30T05:43:45.534Z,1002.35
2023-12-30T05:44:45.506Z,1002.40
2023-12-30T05:45:45.525Z,1002.38
2023-12-30T05:46:45.551Z,1002.41
2023-12-30T05:47:45.699Z,1002.44
2023-12-30T05:48:45.657Z,1002.46
2023-12-30T05:49:45.580Z,1002.53
2023-12-30T05:50:45.576Z,1002.51
2023-12-30T05:51:45.589Z,1002.59
2023-12-30T05:52:45.600Z,1002.60
2023-12-30T05:53:45.611Z,1002.57
2023-12-30T05:54:45.625Z,1002.66
2023-12-30T05:55:45.653Z,1002.69
2023-12-30T05:56:45.652Z,1002.65
2023-12-30T05:57:45.657Z,1002.68
2023-12-30T05:58:45.669Z,1002.73
2023-12-30T05:59:45.680Z,1002.72
2023-12-30T06:00:45.717Z,1002.69
2023-12-30T06:01:45.828Z,1002.70
2023-12-30T06:02:45.712Z,1002.75
2023-12-30T06:03:45.742Z,1002.81
2023-12-30T06:04:45.759Z,1002.79
2023-12-30T06:05:45.816Z,1002.78
2023-12-30T06:06:45.773Z,1002.79
2023-12-30T06:07:45.770Z,1002.83
2023-12-30T06:08:45.779Z,1002.86
2023-12-30T06:09:45.814Z,1002.84
2023-12-30T06:10:45.845Z,1002.90
2023-12-30T06:11:45.829Z,1002.89
2023-12-30T06:12:45.828Z,1002.92
2023-12-30T06:13:45.882Z,1002.95
2023-12-30T06:14:45.853Z,1002.93
2023-12-30T06:15:45.867Z,1002.95
2023-12-30T06:16:45.881Z,1002.96
2023-12-30T06:17:45.971Z,1002.98
2023-12-30T06:18:45.924Z,1003.03
2023-12-30T06:19:45.929Z,1003.05
2023-12-30T06:20:45.916Z,1003.00
2023-12-30T06:21:45.930Z,1003.07
2023-12-30T06:22:45.942Z,1003.07
2023-12-30T06:23:45.954Z,1003.06
2023-12-30T06:24:45.962Z,1003.04
2023-12-30T06:25:46.009Z,1003.06
2023-12-30T06:26:45.990Z,1003.07
2023-12-30T06:27:46.008Z,1003.15
2023-12-30T06:28:46.062Z,1003.24
2023-12-30T06:29:46.019Z,1003.16
2023-12-30T06:30:46.117Z,1003.22
2023-12-30T06:31:46.159Z,1003.22
2023-12-30T06:32:46.093Z,1003.26
2023-12-30T06:33:46.113Z,1003.27
2023-12-30T06:34:46.124Z,1003.24
2023-12-30T06:35:46.104Z,1003.26
2023-12-30T06:36:46.104Z,1003.30
2023-12-30T06:37:46.119Z,1003.34
2023-12-30T06:38:46.153Z,1003.29
2023-12-30T06:39:46.130Z,1003.34
2023-12-30T06:40:46.170Z,1003.34
2023-12-30T06:41:46.154Z,1003.35
2023-12-30T06:42:46.164Z,1003.41
2023-12-30T06:43:46.204Z,1003.38
2023-12-30T06:44:46.189Z,1003.45
2023-12-30T06:45:46.207Z,1003.38
2023-12-30T06:46:46.225Z,1003.46
2023-12-30T06:47:46.262Z,1003.42
2023-12-30T06:48:46.271Z,1003.53
2023-12-30T06:49:46.351Z,1003.55
2023-12-30T06:50:46.256Z,1003.51
2023-12-30T06:51:46.280Z,1003.55
2023-12-30T06:52:46.277Z,1003.56
2023-12-30T06:53:46.297Z,1003.56
2023-12-30T06:54:46.390Z,1003.56
2023-12-30T06:55:48.391Z,1003.66
2023-12-30T06:56:46.321Z,1003.66
2023-12-30T06:57:46.336Z,1003.63
2023-12-30T06:58:46.347Z,1003.67
2023-12-30T06:59:46.360Z,1003.69
2023-12-30T07:00:46.505Z,1003.71
2023-12-30T07:01:46.397Z,1003.72
2023-12-30T07:02:46.410Z,1003.69
2023-12-30T07:03:46.417Z,1003.69
2023-12-30T07:04:46.434Z,1003.78
2023-12-30T07:05:46.424Z,1003.80
2023-12-30T07:06:46.434Z,1003.74
2023-12-30T07:07:46.440Z,1003.82
2023-12-30T07:08:46.454Z,1003.79
2023-12-30T07:09:46.479Z,1003.80
2023-12-30T07:10:46.490Z,1003.81
2023-12-30T07:11:46.556Z,1003.86
2023-12-30T07:12:46.500Z,1003.83
2023-12-30T07:13:46.572Z,1003.88
2023-12-30T07:14:46.539Z,1003.88
2023-12-30T07:15:46.600Z,1003.88
2023-12-30T07:16:46.544Z,1003.97
2023-12-30T07:17:46.607Z,1003.91
2023-12-30T07:18:46.609Z,1003.93
2023-12-30T07:19:46.604Z,1003.96
2023-12-30T07:20:46.598Z,1003.94
2023-12-30T07:21:46.600Z,1003.94
2023-12-30T07:22:46.611Z,1003.99
2023-12-30T07:23:46.625Z,1004.04
2023-12-30T07:24:46.638Z,1004.07
2023-12-30T07:25:46.648Z,1004.06
2023-12-30T07:26:46.660Z,1004.06
2023-12-30T07:27:46.667Z,1004.07
2023-12-30T07:28:46.676Z,1004.13
2023-12-30T07:29:46.684Z,1004.09
2023-12-30T07:30:46.727Z,1004.17
2023-12-30T07:31:46.790Z,1004.19
2023-12-30T07:32:46.764Z,1004.18
2023-12-30T07:33:46.828Z,1004.16
2023-12-30T07:34:46.790Z,1004.24
2023-12-30T07:35:46.756Z,1004.22
2023-12-30T07:36:46.770Z,1004.23
2023-12-30T07:37:46.777Z,1004.24
2023-12-30T07:38:46.794Z,1004.22
2023-12-30T07:39:46.799Z,1004.30
2023-12-30T07:40:46.851Z,1004.30
2023-12-30T07:41:46.827Z,1004.34
2023-12-30T07:42:46.830Z,1004.37
2023-12-30T07:43:46.879Z,1004.31
2023-12-30T07:44:46.856Z,1004.34
2023-12-30T07:45:46.875Z,1004.42
2023-12-30T07:46:46.882Z,1004.40
2023-12-30T07:47:46.926Z,1004.42
2023-12-30T07:48:46.901Z,1004.44
2023-12-30T07:49:46.918Z,1004.46
2023-12-30T07:50:46.921Z,1004.39
2023-12-30T07:51:46.946Z,1004.47
2023-12-30T07:52:47.001Z,1004.42
2023-12-30T07:53:46.968Z,1004.47
2023-12-30T07:54:47.001Z,1004.49
2023-12-30T07:55:47.041Z,1004.48
2023-12-30T07:56:46.994Z,1004.42
2023-12-30T07:57:47.000Z,1004.51
2023-12-30T07:58:47.023Z,1004.57
2023-12-30T07:59:47.022Z,1004.58
2023-12-30T08:00:48.310Z,1004.63
2023-12-30T08:01:47.106Z,1004.61
2023-12-30T08:02:47.056Z,1004.62
2023-12-30T08:03:47.089Z,1004.65
2023-12-30T08:04:47.122Z,1004.68
2023-12-30T08:05:47.145Z,1004.64
2023-12-30T08:06:47.101Z,1004.67
2023-12-30T08:07:47.157Z,1004.69
2023-12-30T08:08:47.123Z,1004.74
2023-12-30T08:09:47.140Z,1004.73
2023-12-30T08:10:47.178Z,1004.73
2023-12-30T08:11:55.169Z,1004.74
2023-12-30T08:12:47.249Z,1004.71
2023-12-30T08:13:47.207Z,1004.74
2023-12-30T08:14:47.205Z,1004.76
2023-12-30T08:15:47.198Z,1004.73
2023-12-30T08:16:47.210Z,1004.71
2023-12-30T08:17:47.318Z,1004.77
2023-12-30T08:18:47.323Z,1004.73
2023-12-30T08:19:47.272Z,1004.77
2023-12-30T08:20:47.257Z,1004.76
2023-12-30T08:21:47.287Z,1004.84
2023-12-30T08:22:47.275Z,1004.79
2023-12-30T08:23:47.287Z,1004.76
2023-12-30T08:24:47.301Z,1004.78
2023-12-30T08:25:47.309Z,1004.81
2023-12-30T08:26:47.321Z,1004.76
2023-12-30T08:27:47.338Z,1004.80
2023-12-30T08:28:47.346Z,1004.80
2023-12-30T08:29:47.358Z,1004.78
2023-12-30T08:30:47.471Z,1004.78
2023-12-30T08:31:47.822Z,1004.79
2023-12-30T08:32:47.418Z,1004.77
2023-12-30T08:33:47.471Z,1004.77
2023-12-30T08:34:47.491Z,1004.81
2023-12-30T08:35:47.428Z,1004.77
2023-12-30T08:36:47.432Z,1004.80
2023-12-30T08:37:47.464Z,1004.86
2023-12-30T08:38:47.454Z,1004.88
2023-12-30T08:39:47.464Z,1004.86
2023-12-30T08:40:47.526Z,1004.86
2023-12-30T08:41:47.484Z,1004.86
2023-12-30T08:42:47.519Z,1004.80
2023-12-30T08:43:47.558Z,1004.90
2023-12-30T08:44:47.527Z,1004.89
2023-12-30T08:45:47.555Z,1004.94
2023-12-30T08:46:47.607Z,1004.96
2023-12-30T08:47:47.645Z,1004.99
2023-12-30T08:48:47.651Z,1004.98
2023-12-30T08:49:47.650Z,1005.04
2023-12-30T08:50:47.593Z,1005.07
2023-12-30T08:51:47.601Z,1005.07
2023-12-30T08:52:47.618Z,1005.05
2023-12-30T08:53:47.635Z,1005.09
2023-12-30T08:54:47.638Z,1005.10
2023-12-30T08:55:47.676Z,1005.07
2023-12-30T08:56:47.659Z,1005.05
2023-12-30T08:57:47.671Z,1005.06
2023-12-30T08:58:47.682Z,1005.04
2023-12-30T08:59:47.694Z,1005.06
2023-12-30T09:00:47.724Z,1005.04
2023-12-30T09:01:47.731Z,1005.03
2023-12-30T09:02:47.726Z,1005.02
2023-12-30T09:03:47.798Z,1005.08
2023-12-30T09:04:47.780Z,1005.06
2023-12-30T09:05:47.820Z,1005.04
2023-12-30T09:06:47.783Z,1005.06
2023-12-30T09:07:47.787Z,1005.06
2023-12-30T09:08:47.794Z,1005.07
2023-12-30T09:09:47.880Z,1005.11
2023-12-30T09:10:47.841Z,1005.12
2023-12-30T09:11:47.832Z,1005.11
2023-12-30T09:12:47.844Z,1005.10
2023-12-30T09:13:47.900Z,1005.13
2023-12-30T09:14:47.865Z,1005.17
2023-12-30T09:15:47.909Z,1005.16
2023-12-30T09:16:47.972Z,1005.21
2023-12-30T09:17:48.146Z,1005.18
2023-12-30T09:18:48.085Z,1005.23
2023-12-30T09:19:48.052Z,1005.25
2023-12-30T09:20:47.938Z,1005.32
2023-12-30T09:21:47.949Z,1005.28
2023-12-30T09:22:47.956Z,1005.33
2023-12-30T09:23:47.968Z,1005.34
2023-12-30T09:24:47.983Z,1005.41
2023-12-30T09:25:48.005Z,1005.36
2023-12-30T09:26:48.003Z,1005.38
2023-12-30T09:27:48.135Z,1005.48
2023-12-30T09:28:48.028Z,1005.40
2023-12-30T09:29:48.041Z,1005.37
2023-12-30T09:30:48.087Z,1005.38
2023-12-30T09:31:48.076Z,1005.39
2023-12-30T09:32:48.145Z,1005.44
2023-12-30T09:33:48.117Z,1005.41
2023-12-30T09:34:48.195Z,1005.43
2023-12-30T09:35:48.107Z,1005.49
2023-12-30T09:36:48.120Z,1005.46
2023-12-30T09:37:48.134Z,1005.42
2023-12-30T09:38:48.145Z,1005.44
2023-12-30T09:39:48.161Z,1005.48
2023-12-30T09:40:48.198Z,1005.54
2023-12-30T09:41:48.183Z,1005.55
2023-12-30T09:42:48.197Z,1005.56
2023-12-30T09:43:48.247Z,1005.57
2023-12-30T09:44:48.219Z,1005.61
2023-12-30T09:45:48.227Z,1005.60
2023-12-30T09:46:48.285Z,1005.62
2023-12-30T09:47:48.418Z,1005.65
2023-12-30T09:48:48.348Z,1005.72
2023-12-30T09:49:48.301Z,1005.75
2023-12-30T09:50:48.287Z,1005.68
2023-12-30T09:51:48.300Z,1005.68
2023-12-30T09:52:48.314Z,1005.72
2023-12-30T09:53:48.329Z,1005.72
2023-12-30T09:54:49.609Z,1005.65
2023-12-30T09:55:48.368Z,1005.65
2023-12-30T09:56:48.358Z,1005.64
2023-12-30T09:57:48.375Z,1005.68
2023-12-30T09:58:48.381Z,1005.71
2023-12-30T09:59:48.394Z,1005.64
2023-12-30T10:00:48.450Z,1005.70
2023-12-30T10:01:48.448Z,1005.73
2023-12-30T10:02:48.466Z,1005.74
2023-12-30T10:03:48.450Z,1005.75
2023-12-30T10:04:48.542Z,1005.73
2023-12-30T10:05:48.808Z,1005.79
2023-12-30T10:06:48.481Z,1005.79
2023-12-30T10:07:48.544Z,1005.79
2023-12-30T10:08:48.516Z,1005.84
2023-12-30T10:09:48.557Z,1005.81
2023-12-30T10:10:48.669Z,1005.76
2023-12-30T10:11:48.547Z,1005.77
2023-12-30T10:12:48.550Z,1005.83
2023-12-30T10:13:48.609Z,1005.82
2023-12-30T10:14:48.574Z,1005.81
2023-12-30T10:15:48.670Z,1005.81
2023-12-30T10:16:48.722Z,1005.92
2023-12-30T10:17:48.903Z,1005.89
2023-12-30T10:18:48.744Z,1005.94
2023-12-30T10:19:48.863Z,1005.94
2023-12-30T10:20:48.742Z,1005.93
2023-12-30T10:21:48.761Z,1006.00
2023-12-30T10:22:48.753Z,1005.97
2023-12-30T10:23:48.732Z,1006.02
2023-12-30T10:24:48.713Z,1005.98
2023-12-30T10:25:48.938Z,1006.04
2023-12-30T10:26:48.850Z,1006.00
2023-12-30T10:27:48.736Z,1005.96
2023-12-30T10:28:48.790Z,1005.81
2023-12-30T10:29:54.169Z,1006.02
2023-12-30T10:30:48.975Z,1005.97
2023-12-30T10:31:49.027Z,1006.02
2023-12-30T10:32:48.965Z,1006.02
2023-12-30T10:33:48.973Z,1005.99
2023-12-30T10:34:49.137Z,1005.99
2023-12-30T10:35:48.841Z,1006.07
2023-12-30T10:36:48.862Z,1006.00
2023-12-30T10:37:48.897Z,1006.02
2023-12-30T10:38:48.898Z,1006.09
2023-12-30T10:39:48.902Z,1006.10
2023-12-30T10:40:48.947Z,1006.05
2023-12-30T10:41:48.966Z,1006.11
2023-12-30T10:42:49.060Z,1006.08
2023-12-30T10:43:48.973Z,1006.07
2023-12-30T10:44:49.039Z,1006.09
2023-12-30T10:45:48.977Z,1006.10
2023-12-30T10:46:48.986Z,1006.08
2023-12-30T10:47:49.109Z,1006.11
2023-12-30T10:48:49.013Z,1006.15
2023-12-30T10:49:49.102Z,1006.18
2023-12-30T10:50:49.039Z,1006.18
2023-12-30T10:51:49.052Z,1006.22
2023-12-30T10:52:49.066Z,1006.18
2023-12-30T10:53:49.078Z,1006.22
2023-12-30T10:54:49.146Z,1006.16
2023-12-30T10:55:49.171Z,1006.18
2023-12-30T10:56:49.114Z,1006.24
2023-12-30T10:57:49.136Z,1006.22
2023-12-30T10:58:49.163Z,1006.22
2023-12-30T10:59:49.156Z,1006.19
2023-12-30T11:00:49.205Z,1006.27
2023-12-30T11:01:49.217Z,1006.34
2023-12-30T11:02:49.192Z,1006.25
2023-12-30T11:03:49.225Z,1006.27
2023-12-30T11:04:49.260Z,1006.28
2023-12-30T11:05:49.364Z,1006.30
2023-12-30T11:06:49.384Z,1006.24
2023-12-30T11:07:49.260Z,1006.26
2023-12-30T11:08:49.281Z,1006.17
2023-12-30T11:09:49.290Z,1006.24
2023-12-30T11:10:49.361Z,1006.24
2023-12-30T11:11:49.314Z,1006.14
2023-12-30T11:12:49.334Z,1006.20
2023-12-30T11:13:49.386Z,1006.25
2023-12-30T11:14:49.358Z,1006.25
2023-12-30T11:15:49.415Z,1006.26
2023-12-30T11:16:49.431Z,1006.24
2023-12-30T11:17:49.503Z,1006.31
2023-12-30T11:18:49.518Z,1006.33
2023-12-30T11:19:49.476Z,1006.33
2023-12-30T11:20:49.493Z,1006.32
2023-12-30T11:21:49.451Z,1006.32
2023-12-30T11:22:49.456Z,1006.33
2023-12-30T11:23:49.476Z,1006.32
2023-12-30T11:24:49.484Z,1006.28
2023-12-30T11:25:49.557Z,1006.22
2023-12-30T11:26:49.515Z,1006.24
2023-12-30T11:27:49.528Z,1006.17
2023-12-30T11:28:49.547Z,1006.22
2023-12-30T11:29:49.569Z,1006.13
2023-12-30T11:30:49.689Z,1006.12
2023-12-30T11:31:49.791Z,1006.15
2023-12-30T11:32:49.676Z,1006.15
2023-12-30T11:33:49.705Z,1006.13
2023-12-30T11:34:49.682Z,1006.11
2023-12-30T11:35:49.641Z,1006.12
2023-12-30T11:36:49.647Z,1006.07
2023-12-30T11:37:49.670Z,1006.01
2023-12-30T11:38:49.735Z,1006.05
2023-12-30T11:39:49.719Z,1006.04
2023-12-30T11:40:49.784Z,1006.03
2023-12-30T11:41:49.726Z,1005.98
2023-12-30T11:42:49.743Z,1006.00
2023-12-30T11:43:49.867Z,1005.99
2023-12-30T11:44:51.024Z,1006.01
2023-12-30T11:45:49.785Z,1005.99
2023-12-30T11:46:49.890Z,1006.02
2023-12-30T11:47:49.851Z,1005.99
2023-12-30T11:48:49.858Z,1005.97
2023-12-30T11:49:49.895Z,1005.95
2023-12-30T11:50:49.850Z,1005.96
2023-12-30T11:51:49.860Z,1005.93
2023-12-30T11:52:49.930Z,1005.94
2023-12-30T11:53:49.890Z,1005.96
2023-12-30T11:54:49.903Z,1006.01
2023-12-30T11:55:49.935Z,1005.98
2023-12-30T11:56:49.928Z,1006.00
2023-12-30T11:57:49.949Z,1006.02
2023-12-30T11:58:50.019Z,1005.97
2023-12-30T11:59:49.970Z,1005.99
2023-12-30T12:00:50.014Z,1005.92
2023-12-30T12:01:50.125Z,1005.93
2023-12-30T12:02:50.013Z,1005.85
2023-12-30T12:03:50.047Z,1005.85
2023-12-30T12:04:50.107Z,1005.88
2023-12-30T12:05:50.079Z,1005.92
2023-12-30T12:06:50.065Z,1005.90